createdAt,value
2017-09-06T00:01:19.184Z,19.30
2017-09-06T00:03:46.634Z,19.30
2017-09-06T00:06:14.097Z,19.30
2017-09-06T00:08:41.563Z,19.20
2017-09-06T00:11:08.997Z,19.20
2017-09-06T00:13:36.447Z,19.20
2017-09-06T00:16:03.898Z,19.20
2017-09-06T00:18:31.356Z,19.20
2017-09-06T00:20:58.812Z,19.20
2017-09-06T00:23:26.263Z,19.20
2017-09-06T00:25:53.709Z,19.20
2017-09-06T00:28:21.180Z,19.20
2017-09-06T00:30:48.633Z,19.20
2017-09-06T00:33:16.092Z,19.20
2017-09-06T00:35:44.100Z,19.20
2017-09-06T00:38:11.632Z,19.20
2017-09-06T00:40:39.093Z,19.20
2017-09-06T00:43:06.553Z,19.20
2017-09-06T00:45:34.009Z,19.20
2017-09-06T00:48:01.464Z,19.20
2017-09-06T00:50:28.920Z,19.20
2017-09-06T00:52:56.365Z,19.20
2017-09-06T00:55:23.877Z,19.30
2017-09-06T00:57:51.333Z,19.30
2017-09-06T01:00:18.789Z,19.30
2017-09-06T01:02:46.237Z,19.30
2017-09-06T01:05:13.706Z,19.30
2017-09-06T01:07:41.159Z,19.20
2017-09-06T01:10:08.605Z,19.20
2017-09-06T01:12:36.110Z,19.20
2017-09-06T01:15:03.562Z,19.20
2017-09-06T01:17:31.020Z,19.20
2017-09-06T01:19:58.497Z,19.10
2017-09-06T01:22:25.966Z,19.10
2017-09-06T01:24:53.424Z,19.10
2017-09-06T01:27:20.888Z,19.10
2017-09-06T01:29:48.345Z,19.10
2017-09-06T01:32:15.802Z,19.10
2017-09-06T01:34:43.297Z,19.10
2017-09-06T01:37:10.749Z,19.10
2017-09-06T01:39:38.197Z,19.00
2017-09-06T01:42:05.636Z,19.10
2017-09-06T01:44:33.107Z,19.00
2017-09-06T01:47:00.561Z,19.00
2017-09-06T01:49:28.009Z,19.10
2017-09-06T01:51:55.461Z,19.00
2017-09-06T01:54:22.920Z,19.00
2017-09-06T01:56:50.385Z,19.00
2017-09-06T01:59:17.849Z,19.00
2017-09-06T02:01:45.609Z,19.10
2017-09-06T02:04:13.064Z,19.10
2017-09-06T02:06:40.601Z,19.10
2017-09-06T02:09:08.522Z,19.10
2017-09-06T02:11:36.032Z,19.10
2017-09-06T02:14:03.481Z,19.10
2017-09-06T02:16:30.950Z,19.10
2017-09-06T02:18:58.414Z,19.10
2017-09-06T02:21:25.873Z,19.10
2017-09-06T02:23:53.322Z,19.10
2017-09-06T02:26:20.786Z,19.10
2017-09-06T02:28:48.262Z,19.10
2017-09-06T02:31:15.726Z,19.10
2017-09-06T02:33:43.188Z,19.10
2017-09-06T02:36:10.621Z,19.10
2017-09-06T02:38:38.071Z,19.10
2017-09-06T02:41:05.515Z,19.10
2017-09-06T02:43:33.054Z,19.10
2017-09-06T02:46:00.483Z,19.10
2017-09-06T02:48:27.945Z,19.10
2017-09-06T02:50:55.424Z,19.10
2017-09-06T02:53:22.945Z,19.10
2017-09-06T02:55:50.388Z,19.10
2017-09-06T02:58:17.869Z,19.10
2017-09-06T03:00:45.317Z,19.10
2017-09-06T03:03:12.773Z,19.10
2017-09-06T03:05:40.235Z,19.10
2017-09-06T03:08:07.772Z,19.00
2017-09-06T03:10:35.242Z,19.00
2017-09-06T03:13:02.741Z,19.00
2017-09-06T03:15:30.968Z,19.00
2017-09-06T03:17:58.425Z,18.90
2017-09-06T03:20:25.884Z,18.90
2017-09-06T03:22:53.985Z,18.90
2017-09-06T03:25:21.433Z,18.90
2017-09-06T03:27:48.896Z,18.90
2017-09-06T03:30:16.349Z,18.90
2017-09-06T03:32:43.784Z,18.90
2017-09-06T03:35:11.224Z,18.90
2017-09-06T03:37:38.772Z,18.90
2017-09-06T03:40:06.210Z,18.90
2017-09-06T03:42:34.295Z,18.90
2017-09-06T03:45:01.745Z,19.00
2017-09-06T03:47:29.205Z,19.00
2017-09-06T03:49:57.217Z,19.00
2017-09-06T03:52:24.677Z,19.00
2017-09-06T03:54:52.132Z,19.00
2017-09-06T03:57:19.593Z,19.00
2017-09-06T03:59:47.049Z,19.00
2017-09-06T04:02:14.493Z,19.00
2017-09-06T04:04:41.953Z,19.00
2017-09-06T04:07:09.419Z,19.00
2017-09-06T04:09:36.886Z,19.00
2017-09-06T04:12:04.342Z,19.00
2017-09-06T04:14:32.409Z,19.00
2017-09-06T05:02:51.872Z,19.00
2017-09-06T05:05:20.021Z,18.70
2017-09-06T05:07:47.489Z,18.70
2017-09-06T05:10:14.952Z,18.70
2017-09-06T05:12:42.407Z,18.70
2017-09-06T05:15:09.870Z,18.70
2017-09-06T05:17:37.328Z,18.70
2017-09-06T05:20:04.792Z,18.70
2017-09-06T05:22:32.240Z,18.70
2017-09-06T05:24:59.698Z,18.70
2017-09-06T05:27:27.148Z,18.70
2017-09-06T05:29:54.652Z,18.70
2017-09-06T05:32:22.112Z,18.60
2017-09-06T05:34:49.568Z,18.70
2017-09-06T05:37:17.037Z,18.70
2017-09-06T05:39:44.503Z,18.70
2017-09-06T05:42:11.962Z,18.70
2017-09-06T05:44:39.422Z,18.70
2017-09-06T05:47:06.885Z,18.70
2017-09-06T05:49:34.345Z,18.70
2017-09-06T05:52:01.797Z,18.70
2017-09-06T05:54:30.809Z,18.70
2017-09-06T05:56:58.257Z,18.70
2017-09-06T05:59:25.712Z,18.70
2017-09-06T06:01:53.685Z,18.70
2017-09-06T06:04:21.857Z,18.80
2017-09-06T06:06:50.089Z,18.70
2017-09-06T06:09:17.544Z,18.70
2017-09-06T06:11:45.004Z,18.70
2017-09-06T06:14:12.461Z,18.70
2017-09-06T06:16:39.952Z,18.70
2017-09-06T06:19:07.405Z,18.70
2017-09-06T06:21:34.897Z,18.70
2017-09-06T06:24:02.383Z,18.70
2017-09-06T06:26:29.845Z,18.70
2017-09-06T06:28:58.086Z,18.70
2017-09-06T06:31:25.540Z,18.60
2017-09-06T06:33:53.100Z,18.50
2017-09-06T06:36:21.222Z,18.50
2017-09-06T06:38:48.686Z,18.40
2017-09-06T06:41:16.144Z,18.40
2017-09-06T06:43:43.601Z,18.40
2017-09-06T06:46:11.062Z,18.40
2017-09-06T06:48:38.601Z,18.40
2017-09-06T06:51:06.061Z,18.40
2017-09-06T06:53:33.526Z,18.30
2017-09-06T06:56:00.978Z,18.20
2017-09-06T06:58:29.137Z,18.20
2017-09-06T07:00:56.601Z,18.10
2017-09-06T07:03:24.111Z,18.10
2017-09-06T07:05:51.564Z,18.10
2017-09-06T07:08:19.018Z,18.00
2017-09-06T07:10:46.463Z,18.10
2017-09-06T07:13:13.906Z,18.10
2017-09-06T07:15:41.367Z,18.10
2017-09-06T07:18:08.833Z,18.10
2017-09-06T07:20:36.568Z,18.10
2017-09-06T07:23:04.022Z,18.10
2017-09-06T07:25:31.573Z,18.10
2017-09-06T07:27:59.037Z,18.10
2017-09-06T07:30:26.501Z,18.10
2017-09-06T07:32:53.972Z,18.10
2017-09-06T07:35:21.412Z,18.10
2017-09-06T07:37:48.868Z,18.10
2017-09-06T07:40:16.337Z,18.10
2017-09-06T07:42:43.793Z,18.10
2017-09-06T07:45:11.803Z,18.10
2017-09-06T07:47:39.260Z,18.10
2017-09-06T07:50:06.724Z,18.10
2017-09-06T07:52:34.190Z,18.00
2017-09-06T07:55:01.653Z,17.90
2017-09-06T07:57:29.100Z,17.80
2017-09-06T07:59:56.577Z,17.70
2017-09-06T08:02:24.041Z,17.50
2017-09-06T08:04:51.493Z,17.40
2017-09-06T08:07:18.949Z,17.20
2017-09-06T08:09:46.508Z,17.20
2017-09-06T08:12:13.973Z,17.10
2017-09-06T08:14:41.416Z,17.10
2017-09-06T08:17:08.868Z,17.00
2017-09-06T08:19:36.327Z,17.00
2017-09-06T08:22:03.820Z,17.00
2017-09-06T08:24:31.385Z,17.00
2017-09-06T08:26:58.837Z,17.00
2017-09-06T08:29:26.292Z,17.00
2017-09-06T08:31:53.796Z,17.00
2017-09-06T08:34:21.400Z,16.90
2017-09-06T08:36:48.863Z,16.90
2017-09-06T08:39:16.304Z,16.90
2017-09-06T08:41:43.841Z,17.00
2017-09-06T08:44:11.280Z,17.00
2017-09-06T08:46:38.745Z,17.00
2017-09-06T08:49:06.221Z,17.00
2017-09-06T08:51:33.680Z,17.00
2017-09-06T08:54:01.153Z,17.00
2017-09-06T08:56:28.617Z,17.00
2017-09-06T08:58:56.090Z,17.00
2017-09-06T09:01:23.540Z,17.00
2017-09-06T09:03:50.993Z,17.00
2017-09-06T09:06:18.445Z,17.00
2017-09-06T09:08:45.904Z,16.90
2017-09-06T09:11:13.369Z,16.90
2017-09-06T09:13:40.841Z,17.00
2017-09-06T09:16:09.013Z,16.90
2017-09-06T09:18:36.492Z,16.90
2017-09-06T09:21:03.946Z,16.90
2017-09-06T09:23:31.397Z,17.00
2017-09-06T09:25:58.868Z,17.00
2017-09-06T09:28:26.317Z,17.00
2017-09-06T09:30:53.772Z,17.00
2017-09-06T09:33:21.222Z,17.00
2017-09-06T09:35:48.688Z,17.00
2017-09-06T09:38:16.152Z,17.00
2017-09-06T09:40:43.656Z,17.00
2017-09-06T09:43:11.160Z,17.10
2017-09-06T09:45:38.607Z,17.10
2017-09-06T09:48:06.097Z,17.10
2017-09-06T09:50:33.565Z,17.10
2017-09-06T09:53:01.026Z,17.10
2017-09-06T09:55:28.515Z,17.10
2017-09-06T09:57:55.969Z,17.10
2017-09-06T10:00:23.535Z,17.10
2017-09-06T10:02:50.983Z,17.10
2017-09-06T10:05:18.422Z,17.10
2017-09-06T10:07:46.159Z,17.20
2017-09-06T10:10:13.600Z,17.20
2017-09-06T10:12:41.105Z,17.30
2017-09-06T10:15:08.553Z,17.30
2017-09-06T10:17:36.014Z,17.30
2017-09-06T10:20:03.477Z,17.30
2017-09-06T10:22:30.933Z,17.30
2017-09-06T10:24:58.389Z,17.30
2017-09-06T10:27:25.833Z,17.20
2017-09-06T10:29:53.293Z,17.20
2017-09-06T10:32:20.751Z,17.20
2017-09-06T10:34:48.204Z,17.10
2017-09-06T10:37:15.664Z,17.10
2017-09-06T10:39:43.122Z,17.10
2017-09-06T10:42:10.586Z,17.10
2017-09-06T10:44:38.049Z,17.00
2017-09-06T10:47:05.504Z,17.00
2017-09-06T10:49:32.960Z,17.00
2017-09-06T10:52:00.416Z,17.00
2017-09-06T10:54:27.865Z,17.00
2017-09-06T10:56:55.345Z,16.90
2017-09-06T10:59:22.781Z,16.90
2017-09-06T11:01:50.227Z,16.90
2017-09-06T11:04:17.673Z,16.90
2017-09-06T11:06:45.108Z,16.90
2017-09-06T11:09:12.826Z,16.90
2017-09-06T11:11:40.282Z,16.90
2017-09-06T11:14:07.729Z,16.80
2017-09-06T11:16:35.190Z,16.80
2017-09-06T11:19:02.649Z,16.80
2017-09-06T11:21:30.109Z,16.90
2017-09-06T11:23:57.571Z,16.90
2017-09-06T11:26:25.013Z,16.90
2017-09-06T11:28:52.466Z,16.90
2017-09-06T11:31:20.107Z,16.90
2017-09-06T11:33:47.565Z,17.00
2017-09-06T11:36:15.018Z,17.00
2017-09-06T11:38:42.468Z,17.00
2017-09-06T11:41:09.924Z,17.10
2017-09-06T11:43:37.413Z,17.10
2017-09-06T11:46:04.873Z,17.10
2017-09-06T11:48:32.333Z,17.10
2017-09-06T11:50:59.789Z,17.10
2017-09-06T11:53:27.253Z,17.10
2017-09-06T11:55:55.480Z,17.20
2017-09-06T11:58:23.549Z,17.20
2017-09-06T12:00:51.003Z,17.20
2017-09-06T12:03:18.462Z,17.20
2017-09-06T12:05:45.925Z,17.20
2017-09-06T12:08:13.381Z,17.20
2017-09-06T12:10:40.839Z,17.20
2017-09-06T12:13:08.301Z,17.40
2017-09-06T12:15:35.755Z,17.60
2017-09-06T12:18:03.208Z,17.90
2017-09-06T12:20:30.681Z,18.10
2017-09-06T12:22:59.013Z,18.10
2017-09-06T12:25:26.470Z,18.20
2017-09-06T12:27:53.919Z,18.10
2017-09-06T12:30:21.370Z,18.20
2017-09-06T12:32:48.832Z,18.40
2017-09-06T12:35:16.294Z,18.50
2017-09-06T12:37:43.757Z,18.70
2017-09-06T12:40:11.209Z,18.70
2017-09-06T12:42:38.777Z,18.70
2017-09-06T12:45:06.504Z,18.60
2017-09-06T12:47:33.974Z,18.50
2017-09-06T12:50:01.427Z,18.40
2017-09-06T12:52:28.924Z,18.30
2017-09-06T12:54:56.381Z,18.30
2017-09-06T12:57:23.836Z,18.20
2017-09-06T12:59:51.296Z,18.20
2017-09-06T13:02:18.745Z,18.20
2017-09-06T13:04:46.209Z,18.10
2017-09-06T13:07:13.702Z,18.20
2017-09-06T13:09:41.217Z,18.20
2017-09-06T13:12:08.674Z,18.20
2017-09-06T13:14:36.214Z,18.30
2017-09-06T13:17:03.669Z,18.30
2017-09-06T13:19:31.138Z,18.40
2017-09-06T13:21:58.602Z,18.60
2017-09-06T13:24:26.115Z,18.80
2017-09-06T13:26:53.557Z,19.00
2017-09-06T13:29:22.145Z,19.20
2017-09-06T13:31:49.665Z,19.30
2017-09-06T13:34:17.144Z,19.50
2017-09-06T13:36:44.606Z,19.60
2017-09-06T13:39:12.056Z,19.70
2017-09-06T13:41:39.517Z,19.60
2017-09-06T13:44:07.000Z,19.60
2017-09-06T13:46:34.448Z,19.50
2017-09-06T13:49:01.905Z,19.40
2017-09-06T13:51:29.365Z,19.40
2017-09-06T13:53:56.817Z,19.30
2017-09-06T13:56:24.260Z,19.30
2017-09-06T13:58:52.265Z,19.30
2017-09-06T14:01:19.719Z,19.20
2017-09-06T14:03:47.173Z,19.20
2017-09-06T14:06:14.625Z,19.10
2017-09-06T14:08:42.081Z,19.10
2017-09-06T14:11:09.557Z,19.00
2017-09-06T14:13:38.110Z,19.00
2017-09-06T14:16:05.561Z,19.00
2017-09-06T14:18:33.024Z,19.00
2017-09-06T14:21:00.488Z,19.10
2017-09-06T14:23:27.949Z,19.20
2017-09-06T14:25:55.427Z,19.20
2017-09-06T14:28:22.876Z,19.30
2017-09-06T14:30:50.337Z,19.40
2017-09-06T14:33:17.792Z,19.40
2017-09-06T14:35:45.249Z,19.50
2017-09-06T14:38:12.696Z,19.50
2017-09-06T14:40:40.171Z,19.50
2017-09-06T14:43:07.609Z,19.50
2017-09-06T14:45:35.091Z,19.60
2017-09-06T14:48:02.550Z,19.70
2017-09-06T14:50:29.990Z,19.70
2017-09-06T14:52:57.445Z,19.70
2017-09-06T14:55:24.907Z,19.70
2017-09-06T14:57:52.365Z,19.80
2017-09-06T15:00:19.826Z,19.90
2017-09-06T15:02:47.292Z,19.90
2017-09-06T15:05:14.748Z,19.80
2017-09-06T15:07:42.206Z,19.70
2017-09-06T15:10:09.664Z,19.60
2017-09-06T15:12:37.141Z,19.50
2017-09-06T15:15:04.602Z,19.40
2017-09-06T15:17:32.065Z,19.30
2017-09-06T15:19:59.524Z,19.30
2017-09-06T15:22:26.993Z,19.30
2017-09-06T15:24:54.456Z,19.40
2017-09-06T15:27:21.912Z,19.40
2017-09-06T15:29:49.377Z,19.40
2017-09-06T15:32:16.825Z,19.30
2017-09-06T15:34:44.337Z,19.30
2017-09-06T15:37:11.780Z,19.30
2017-09-06T15:39:39.250Z,19.30
2017-09-06T15:42:06.692Z,19.20
2017-09-06T15:44:34.153Z,19.10
2017-09-06T15:47:01.617Z,19.10
2017-09-06T15:49:29.065Z,19.00
2017-09-06T15:51:56.525Z,19.00
2017-09-06T15:54:23.980Z,19.00
2017-09-06T15:56:51.438Z,19.00
2017-09-06T15:59:18.882Z,18.90
2017-09-06T16:01:46.349Z,19.00
2017-09-06T16:04:13.809Z,18.90
2017-09-06T16:06:41.289Z,18.90
2017-09-06T16:09:08.770Z,18.80
2017-09-06T16:11:36.208Z,18.80
2017-09-06T16:14:03.737Z,18.70
2017-09-06T16:16:31.342Z,18.70
2017-09-06T16:18:59.945Z,18.50
2017-09-06T16:21:27.409Z,18.50
2017-09-06T16:23:54.873Z,18.50
2017-09-06T16:26:22.341Z,18.40
2017-09-06T16:28:49.786Z,18.40
2017-09-06T16:31:17.228Z,18.30
2017-09-06T16:33:44.692Z,18.30
2017-09-06T16:36:12.154Z,18.30
2017-09-06T16:38:39.613Z,18.20
2017-09-06T16:41:07.160Z,18.10
2017-09-06T16:43:35.173Z,18.10
2017-09-06T16:46:02.649Z,18.10
2017-09-06T16:48:30.462Z,18.00
2017-09-06T16:50:57.929Z,18.00
2017-09-06T16:53:25.376Z,17.90
2017-09-06T16:55:52.872Z,17.90
2017-09-06T16:58:21.501Z,17.80
2017-09-06T17:00:48.973Z,17.80
2017-09-06T17:03:17.144Z,17.80
2017-09-06T17:05:44.608Z,17.80
2017-09-06T17:08:12.073Z,17.80
2017-09-06T17:10:39.513Z,17.70
2017-09-06T17:13:07.285Z,17.70
2017-09-06T17:15:34.808Z,17.60
2017-09-06T17:18:02.266Z,17.60
2017-09-06T17:20:29.725Z,17.60
2017-09-06T17:22:57.180Z,17.50
2017-09-06T17:25:24.650Z,17.50
2017-09-06T17:27:52.130Z,17.50
2017-09-06T17:30:19.589Z,17.50
2017-09-06T17:32:47.043Z,17.50
2017-09-06T17:35:14.557Z,17.50
2017-09-06T17:37:42.042Z,17.40
2017-09-06T17:40:09.503Z,17.40
2017-09-06T17:42:37.004Z,17.30
2017-09-06T17:45:04.464Z,17.30
2017-09-06T17:47:31.921Z,17.20
2017-09-06T17:50:01.337Z,17.20
2017-09-06T17:52:28.776Z,17.20
2017-09-06T17:54:56.236Z,17.10
2017-09-06T17:57:23.684Z,17.10
2017-09-06T17:59:51.692Z,17.00
2017-09-06T18:02:19.144Z,16.90
2017-09-06T18:04:46.591Z,16.90
2017-09-06T18:07:14.050Z,16.90
2017-09-06T18:09:41.507Z,16.90
2017-09-06T18:12:08.961Z,16.90
2017-09-06T18:14:36.405Z,16.90
2017-09-06T18:17:03.947Z,16.90
2017-09-06T18:19:31.414Z,16.90
2017-09-06T18:21:58.963Z,16.90
2017-09-06T18:24:26.405Z,16.90
2017-09-06T18:26:53.860Z,16.80
2017-09-06T18:29:22.174Z,16.80
2017-09-06T18:31:49.628Z,16.80
2017-09-06T18:34:17.085Z,16.70
2017-09-06T18:36:45.070Z,16.70
2017-09-06T18:39:12.526Z,16.70
2017-09-06T18:41:39.960Z,16.80
2017-09-06T18:44:07.416Z,16.70
2017-09-06T18:46:34.873Z,16.70
2017-09-06T18:49:02.328Z,16.70
2017-09-06T18:51:29.785Z,16.70
2017-09-06T18:53:57.729Z,16.70
2017-09-06T18:56:25.184Z,16.70
2017-09-06T18:58:52.641Z,16.70
2017-09-06T19:01:20.217Z,16.70
2017-09-06T19:03:47.786Z,16.70
2017-09-06T19:06:15.236Z,16.60
2017-09-06T19:08:42.687Z,16.60
2017-09-06T19:11:10.136Z,16.60
2017-09-06T19:13:37.597Z,16.60
2017-09-06T19:16:05.821Z,16.60
2017-09-06T19:18:33.284Z,16.60
2017-09-06T19:21:00.751Z,16.70
2017-09-06T19:23:28.193Z,16.70
2017-09-06T19:25:55.653Z,16.70
2017-09-06T19:28:23.120Z,16.60
2017-09-06T19:30:50.584Z,16.60
2017-09-06T19:33:18.095Z,16.60
2017-09-06T19:35:45.723Z,16.70
2017-09-06T19:38:13.190Z,16.60
2017-09-06T19:40:40.646Z,16.60
2017-09-06T19:43:08.104Z,16.60
2017-09-06T19:45:35.569Z,16.50
2017-09-06T19:48:03.029Z,16.60
2017-09-06T19:50:31.212Z,16.60
2017-09-06T19:52:58.656Z,16.50
2017-09-06T19:55:26.116Z,16.60
2017-09-06T19:57:53.576Z,16.50
2017-09-06T20:00:21.053Z,16.60
2017-09-06T20:02:48.496Z,16.50
2017-09-06T20:05:16.624Z,16.50
2017-09-06T20:07:44.074Z,16.50
2017-09-06T20:10:11.543Z,16.50
2017-09-06T20:12:39.083Z,16.50
2017-09-06T20:15:06.535Z,16.40
2017-09-06T20:17:33.988Z,16.40
2017-09-06T20:20:01.445Z,16.40
2017-09-06T20:22:28.908Z,16.40
2017-09-06T20:24:56.401Z,16.40
2017-09-06T20:27:23.865Z,16.30
2017-09-06T20:29:51.320Z,16.30
2017-09-06T20:32:18.780Z,16.30
2017-09-06T20:34:46.236Z,16.30
2017-09-06T20:37:13.691Z,16.30
2017-09-06T20:39:41.149Z,16.20
2017-09-06T20:42:08.605Z,16.30
2017-09-06T20:44:36.065Z,16.20
2017-09-06T20:47:03.534Z,16.20
2017-09-06T20:49:30.985Z,16.20
2017-09-06T20:51:58.438Z,16.20
2017-09-06T20:54:26.208Z,16.10
2017-09-06T20:56:53.660Z,16.10
2017-09-06T20:59:21.116Z,16.10
2017-09-06T21:01:48.573Z,16.10
2017-09-06T21:04:16.040Z,16.10
2017-09-06T21:06:43.492Z,16.00
2017-09-06T21:09:10.948Z,16.00
2017-09-06T21:11:38.397Z,16.00
2017-09-06T21:14:06.483Z,16.00
2017-09-06T21:16:33.933Z,16.00
2017-09-06T21:19:01.389Z,16.00
2017-09-06T21:21:28.866Z,16.00
2017-09-06T21:24:36.024Z,16.00
2017-09-06T21:27:03.465Z,16.00
2017-09-06T21:29:30.923Z,16.00
2017-09-06T21:31:58.366Z,16.00
2017-09-06T21:34:26.580Z,15.90
2017-09-06T21:36:54.032Z,15.90
2017-09-06T21:39:21.497Z,15.90
2017-09-06T21:41:48.966Z,15.90
2017-09-06T21:44:16.425Z,15.90
2017-09-06T21:46:43.886Z,15.80
2017-09-06T21:49:11.351Z,15.80
2017-09-06T21:51:38.812Z,15.80
2017-09-06T21:54:06.265Z,15.80
2017-09-06T21:56:33.729Z,15.80
2017-09-06T21:59:01.204Z,15.80
2017-09-06T22:01:28.675Z,15.70
2017-09-06T22:03:56.125Z,15.80
2017-09-06T22:06:23.589Z,15.70
2017-09-06T22:08:51.036Z,15.80
2017-09-06T22:11:18.484Z,15.80
2017-09-06T22:13:46.724Z,15.80
2017-09-06T22:16:14.181Z,15.80
2017-09-06T22:18:41.632Z,15.80
2017-09-06T22:21:09.106Z,15.80
2017-09-06T22:23:36.588Z,15.80
2017-09-06T22:26:04.043Z,15.80
2017-09-06T22:28:31.570Z,15.80
2017-09-06T22:30:59.479Z,15.80
2017-09-06T22:33:26.956Z,15.80
2017-09-06T22:35:54.455Z,15.80
2017-09-06T22:38:21.909Z,15.80
2017-09-06T22:40:49.381Z,15.80
2017-09-06T22:43:16.829Z,15.80
2017-09-06T22:45:45.052Z,15.80
2017-09-06T22:48:12.521Z,15.80
2017-09-06T22:50:39.973Z,15.70
2017-09-06T22:53:07.418Z,15.70
2017-09-06T22:55:34.892Z,15.80
2017-09-06T22:58:02.432Z,15.70
2017-09-06T23:00:31.452Z,15.70
2017-09-06T23:02:58.953Z,15.70
2017-09-06T23:05:26.422Z,15.70
2017-09-06T23:07:53.893Z,15.80
2017-09-06T23:10:21.444Z,15.80
2017-09-06T23:12:48.892Z,15.80
2017-09-06T23:15:16.367Z,15.80
2017-09-06T23:17:43.825Z,15.70
2017-09-06T23:20:11.274Z,15.70
2017-09-06T23:22:38.733Z,15.70
2017-09-06T23:25:06.184Z,15.70
2017-09-06T23:27:33.644Z,15.70
2017-09-06T23:30:01.129Z,15.70
2017-09-06T23:32:29.004Z,15.70
2017-09-06T23:34:56.448Z,15.70
2017-09-06T23:37:23.906Z,15.70
2017-09-06T23:39:51.373Z,15.70
2017-09-06T23:42:18.809Z,15.70
2017-09-06T23:44:47.135Z,15.70
2017-09-06T23:47:14.581Z,15.70
2017-09-06T23:49:42.030Z,15.70
2017-09-06T23:52:09.485Z,15.80
2017-09-06T23:54:36.965Z,15.80
2017-09-06T23:57:04.402Z,15.70
2017-09-06T23:59:32.633Z,15.80
